sensor_id;sensor_type;location;lat;lon;timestamp;P1;durP1;ratioP1;P2;durP2;ratioP2
34657;SDS011;20865;43.312;27.152;2022-10-31T00:01:40;10.55;;;4.22;;
34657;SDS011;20865;43.312;27.152;2022-10-31T00:04:08;9.23;;;4.85;;
34657;SDS011;20865;43.312;27.152;2022-10-31T00:06:35;9.15;;;4.35;;
34657;SDS011;20865;43.312;27.152;2022-10-31T00:09:03;9.08;;;4.42;;
34657;SDS011;20865;43.312;27.152;2022-10-31T00:11:31;11.20;;;4.55;;
34657;SDS011;20865;43.312;27.152;2022-10-31T00:13:59;14.95;;;4.78;;
34657;SDS011;20865;43.312;27.152;2022-10-31T00:16:27;11.83;;;5.03;;
34657;SDS011;20865;43.312;27.152;2022-10-31T00:19:02;9.75;;;4.37;;
34657;SDS011;20865;43.312;27.152;2022-10-31T00:21:26;9.93;;;4.60;;
34657;SDS011;20865;43.312;27.152;2022-10-31T00:23:56;9.28;;;4.15;;
34657;SDS011;20865;43.312;27.152;2022-10-31T00:26:26;12.28;;;4.92;;
34657;SDS011;20865;43.312;27.152;2022-10-31T00:28:54;8.75;;;4.72;;
34657;SDS011;20865;43.312;27.152;2022-10-31T00:31:23;10.18;;;5.90;;
34657;SDS011;20865;43.312;27.152;2022-10-31T00:33:50;19.30;;;4.95;;
34657;SDS011;20865;43.312;27.152;2022-10-31T00:36:18;10.75;;;4.47;;
34657;SDS011;20865;43.312;27.152;2022-10-31T00:38:47;10.32;;;4.62;;
34657;SDS011;20865;43.312;27.152;2022-10-31T00:41:15;8.00;;;4.08;;
34657;SDS011;20865;43.312;27.152;2022-10-31T00:43:44;8.08;;;4.45;;
34657;SDS011;20865;43.312;27.152;2022-10-31T00:46:12;7.90;;;4.12;;
34657;SDS011;20865;43.312;27.152;2022-10-31T00:48:40;11.65;;;4.40;;
34657;SDS011;20865;43.312;27.152;2022-10-31T00:51:08;8.40;;;3.95;;
34657;SDS011;20865;43.312;27.152;2022-10-31T00:53:36;9.78;;;4.87;;
34657;SDS011;20865;43.312;27.152;2022-10-31T00:56:04;10.50;;;4.35;;
34657;SDS011;20865;43.312;27.152;2022-10-31T00:58:32;10.25;;;4.25;;
34657;SDS011;20865;43.312;27.152;2022-10-31T01:00:59;7.83;;;4.10;;
34657;SDS011;20865;43.312;27.152;2022-10-31T01:03:28;8.33;;;4.25;;
34657;SDS011;20865;43.312;27.152;2022-10-31T01:08:28;8.48;;;4.53;;
34657;SDS011;20865;43.312;27.152;2022-10-31T01:11:10;6.42;;;3.65;;
34657;SDS011;20865;43.312;27.152;2022-10-31T01:13:38;9.25;;;4.05;;
34657;SDS011;20865;43.312;27.152;2022-10-31T01:16:08;8.20;;;3.58;;
34657;SDS011;20865;43.312;27.152;2022-10-31T01:18:37;11.53;;;3.37;;
34657;SDS011;20865;43.312;27.152;2022-10-31T01:21:12;7.40;;;3.42;;
34657;SDS011;20865;43.312;27.152;2022-10-31T01:23:42;9.20;;;3.65;;
34657;SDS011;20865;43.312;27.152;2022-10-31T01:26:16;6.90;;;3.67;;
34657;SDS011;20865;43.312;27.152;2022-10-31T01:28:47;8.73;;;3.67;;
34657;SDS011;20865;43.312;27.152;2022-10-31T01:31:16;7.30;;;3.95;;
34657;SDS011;20865;43.312;27.152;2022-10-31T01:33:45;14.10;;;4.42;;
34657;SDS011;20865;43.312;27.152;2022-10-31T01:36:21;9.30;;;3.80;;
34657;SDS011;20865;43.312;27.152;2022-10-31T01:38:57;8.05;;;3.98;;
34657;SDS011;20865;43.312;27.152;2022-10-31T01:41:27;7.20;;;3.98;;
34657;SDS011;20865;43.312;27.152;2022-10-31T01:44:03;12.68;;;4.67;;
34657;SDS011;20865;43.312;27.152;2022-10-31T01:46:43;9.98;;;4.70;;
34657;SDS011;20865;43.312;27.152;2022-10-31T01:49:17;8.90;;;4.53;;
34657;SDS011;20865;43.312;27.152;2022-10-31T01:51:47;15.05;;;4.72;;
34657;SDS011;20865;43.312;27.152;2022-10-31T01:54:16;8.28;;;4.67;;
34657;SDS011;20865;43.312;27.152;2022-10-31T01:56:48;8.38;;;4.70;;
34657;SDS011;20865;43.312;27.152;2022-10-31T01:59:17;7.65;;;4.35;;
34657;SDS011;20865;43.312;27.152;2022-10-31T02:01:47;9.10;;;4.47;;
34657;SDS011;20865;43.312;27.152;2022-10-31T02:04:17;8.25;;;4.70;;
34657;SDS011;20865;43.312;27.152;2022-10-31T02:06:47;8.40;;;5.00;;
34657;SDS011;20865;43.312;27.152;2022-10-31T02:09:17;10.45;;;4.58;;
34657;SDS011;20865;43.312;27.152;2022-10-31T02:11:48;12.05;;;4.67;;
34657;SDS011;20865;43.312;27.152;2022-10-31T02:14:17;7.85;;;4.10;;
34657;SDS011;20865;43.312;27.152;2022-10-31T02:16:45;10.00;;;4.35;;
34657;SDS011;20865;43.312;27.152;2022-10-31T02:19:13;9.15;;;4.53;;
34657;SDS011;20865;43.312;27.152;2022-10-31T02:21:45;9.13;;;5.17;;
34657;SDS011;20865;43.312;27.152;2022-10-31T02:24:44;11.45;;;5.47;;
34657;SDS011;20865;43.312;27.152;2022-10-31T02:30:07;8.48;;;4.53;;
34657;SDS011;20865;43.312;27.152;2022-10-31T02:32:51;10.00;;;4.87;;
34657;SDS011;20865;43.312;27.152;2022-10-31T02:38:03;8.00;;;4.33;;
34657;SDS011;20865;43.312;27.152;2022-10-31T02:40:56;9.25;;;4.37;;
34657;SDS011;20865;43.312;27.152;2022-10-31T02:43:27;9.70;;;4.17;;
34657;SDS011;20865;43.312;27.152;2022-10-31T02:46:25;9.18;;;3.87;;
34657;SDS011;20865;43.312;27.152;2022-10-31T02:49:03;7.50;;;4.17;;
34657;SDS011;20865;43.312;27.152;2022-10-31T02:51:38;7.35;;;4.25;;
34657;SDS011;20865;43.312;27.152;2022-10-31T02:54:15;6.60;;;3.98;;
34657;SDS011;20865;43.312;27.152;2022-10-31T02:56:44;11.15;;;4.22;;
34657;SDS011;20865;43.312;27.152;2022-10-31T02:59:13;9.98;;;4.35;;
34657;SDS011;20865;43.312;27.152;2022-10-31T03:01:45;9.63;;;3.95;;
34657;SDS011;20865;43.312;27.152;2022-10-31T03:04:40;12.73;;;5.03;;
34657;SDS011;20865;43.312;27.152;2022-10-31T03:10:15;11.75;;;3.95;;
34657;SDS011;20865;43.312;27.152;2022-10-31T03:13:02;6.70;;;3.75;;
34657;SDS011;20865;43.312;27.152;2022-10-31T03:15:36;13.50;;;4.60;;
34657;SDS011;20865;43.312;27.152;2022-10-31T03:20:39;9.53;;;4.53;;
34657;SDS011;20865;43.312;27.152;2022-10-31T03:23:09;7.30;;;3.60;;
34657;SDS011;20865;43.312;27.152;2022-10-31T03:25:38;9.95;;;4.28;;
34657;SDS011;20865;43.312;27.152;2022-10-31T03:28:08;8.33;;;4.30;;
34657;SDS011;20865;43.312;27.152;2022-10-31T03:30:39;6.78;;;3.80;;
34657;SDS011;20865;43.312;27.152;2022-10-31T03:33:10;7.85;;;3.80;;
34657;SDS011;20865;43.312;27.152;2022-10-31T03:35:41;9.20;;;3.58;;
34657;SDS011;20865;43.312;27.152;2022-10-31T03:38:10;10.72;;;4.20;;
34657;SDS011;20865;43.312;27.152;2022-10-31T03:40:40;8.25;;;4.05;;
34657;SDS011;20865;43.312;27.152;2022-10-31T03:43:12;10.72;;;5.12;;
34657;SDS011;20865;43.312;27.152;2022-10-31T03:45:41;10.93;;;4.03;;
34657;SDS011;20865;43.312;27.152;2022-10-31T03:48:12;7.62;;;3.50;;
34657;SDS011;20865;43.312;27.152;2022-10-31T03:53:34;6.00;;;3.60;;
34657;SDS011;20865;43.312;27.152;2022-10-31T03:56:11;8.95;;;4.00;;
34657;SDS011;20865;43.312;27.152;2022-10-31T03:58:45;10.20;;;3.67;;
34657;SDS011;20865;43.312;27.152;2022-10-31T04:01:15;8.80;;;4.05;;
34657;SDS011;20865;43.312;27.152;2022-10-31T04:03:44;8.13;;;4.50;;
34657;SDS011;20865;43.312;27.152;2022-10-31T04:06:13;6.28;;;3.77;;
34657;SDS011;20865;43.312;27.152;2022-10-31T04:08:49;7.45;;;3.95;;
34657;SDS011;20865;43.312;27.152;2022-10-31T04:11:14;8.00;;;4.00;;
34657;SDS011;20865;43.312;27.152;2022-10-31T04:13:44;7.70;;;4.05;;
34657;SDS011;20865;43.312;27.152;2022-10-31T04:16:14;8.18;;;3.87;;
34657;SDS011;20865;43.312;27.152;2022-10-31T04:18:43;12.35;;;4.50;;
34657;SDS011;20865;43.312;27.152;2022-10-31T04:21:11;9.45;;;3.80;;
34657;SDS011;20865;43.312;27.152;2022-10-31T04:23:38;7.17;;;4.12;;
34657;SDS011;20865;43.312;27.152;2022-10-31T04:26:06;8.20;;;4.25;;
34657;SDS011;20865;43.312;27.152;2022-10-31T04:28:34;8.75;;;4.60;;
34657;SDS011;20865;43.312;27.152;2022-10-31T04:31:02;8.90;;;4.65;;
34657;SDS011;20865;43.312;27.152;2022-10-31T04:33:30;8.45;;;4.17;;
34657;SDS011;20865;43.312;27.152;2022-10-31T04:35:57;13.88;;;4.90;;
34657;SDS011;20865;43.312;27.152;2022-10-31T04:38:26;13.10;;;4.92;;
34657;SDS011;20865;43.312;27.152;2022-10-31T04:40:53;9.18;;;4.40;;
34657;SDS011;20865;43.312;27.152;2022-10-31T04:43:21;23.65;;;5.47;;
34657;SDS011;20865;43.312;27.152;2022-10-31T04:45:49;8.28;;;4.75;;
34657;SDS011;20865;43.312;27.152;2022-10-31T04:48:17;8.30;;;4.30;;
34657;SDS011;20865;43.312;27.152;2022-10-31T04:50:45;8.65;;;4.62;;
34657;SDS011;20865;43.312;27.152;2022-10-31T04:53:12;12.35;;;5.25;;
34657;SDS011;20865;43.312;27.152;2022-10-31T04:55:40;11.22;;;4.15;;
34657;SDS011;20865;43.312;27.152;2022-10-31T04:58:07;8.88;;;4.42;;
34657;SDS011;20865;43.312;27.152;2022-10-31T05:00:35;11.30;;;4.75;;
34657;SDS011;20865;43.312;27.152;2022-10-31T05:03:02;13.15;;;4.90;;
34657;SDS011;20865;43.312;27.152;2022-10-31T05:05:31;8.65;;;4.37;;
34657;SDS011;20865;43.312;27.152;2022-10-31T05:07:58;9.35;;;4.42;;
34657;SDS011;20865;43.312;27.152;2022-10-31T05:10:27;8.38;;;4.33;;
34657;SDS011;20865;43.312;27.152;2022-10-31T05:12:57;13.43;;;4.30;;
34657;SDS011;20865;43.312;27.152;2022-10-31T05:15:26;9.15;;;4.28;;
34657;SDS011;20865;43.312;27.152;2022-10-31T05:17:55;9.58;;;4.50;;
34657;SDS011;20865;43.312;27.152;2022-10-31T05:20:24;6.97;;;4.37;;
34657;SDS011;20865;43.312;27.152;2022-10-31T05:22:54;10.08;;;4.50;;
34657;SDS011;20865;43.312;27.152;2022-10-31T05:25:24;6.42;;;3.67;;
34657;SDS011;20865;43.312;27.152;2022-10-31T05:27:53;6.85;;;3.62;;
34657;SDS011;20865;43.312;27.152;2022-10-31T05:30:23;7.45;;;4.15;;
34657;SDS011;20865;43.312;27.152;2022-10-31T05:32:52;6.95;;;3.60;;
34657;SDS011;20865;43.312;27.152;2022-10-31T05:35:21;9.83;;;4.45;;
34657;SDS011;20865;43.312;27.152;2022-10-31T05:37:50;11.22;;;5.22;;
34657;SDS011;20865;43.312;27.152;2022-10-31T05:40:18;7.03;;;3.92;;
34657;SDS011;20865;43.312;27.152;2022-10-31T05:42:47;10.30;;;4.87;;
34657;SDS011;20865;43.312;27.152;2022-10-31T05:45:16;10.20;;;4.65;;
34657;SDS011;20865;43.312;27.152;2022-10-31T05:47:54;8.33;;;4.17;;
34657;SDS011;20865;43.312;27.152;2022-10-31T05:50:27;10.23;;;4.37;;
34657;SDS011;20865;43.312;27.152;2022-10-31T05:53:03;8.50;;;4.40;;
34657;SDS011;20865;43.312;27.152;2022-10-31T05:55:27;8.35;;;4.58;;
34657;SDS011;20865;43.312;27.152;2022-10-31T05:57:56;8.35;;;4.50;;
34657;SDS011;20865;43.312;27.152;2022-10-31T06:00:24;11.10;;;4.35;;
34657;SDS011;20865;43.312;27.152;2022-10-31T06:02:59;11.00;;;5.22;;
34657;SDS011;20865;43.312;27.152;2022-10-31T06:05:28;7.65;;;4.00;;
34657;SDS011;20865;43.312;27.152;2022-10-31T06:07:57;7.60;;;3.77;;
34657;SDS011;20865;43.312;27.152;2022-10-31T06:10:25;9.48;;;4.72;;
34657;SDS011;20865;43.312;27.152;2022-10-31T06:12:53;9.43;;;4.40;;
34657;SDS011;20865;43.312;27.152;2022-10-31T06:15:21;11.55;;;4.97;;
34657;SDS011;20865;43.312;27.152;2022-10-31T06:17:57;11.40;;;5.20;;
34657;SDS011;20865;43.312;27.152;2022-10-31T06:20:25;19.48;;;7.05;;
34657;SDS011;20865;43.312;27.152;2022-10-31T06:22:52;9.90;;;5.20;;
34657;SDS011;20865;43.312;27.152;2022-10-31T06:25:20;8.20;;;4.33;;
34657;SDS011;20865;43.312;27.152;2022-10-31T06:27:47;7.65;;;4.60;;
34657;SDS011;20865;43.312;27.152;2022-10-31T06:30:15;8.73;;;4.35;;
34657;SDS011;20865;43.312;27.152;2022-10-31T06:32:43;13.78;;;5.08;;
34657;SDS011;20865;43.312;27.152;2022-10-31T06:35:11;11.43;;;4.75;;
34657;SDS011;20865;43.312;27.152;2022-10-31T06:37:38;7.55;;;3.80;;
34657;SDS011;20865;43.312;27.152;2022-10-31T06:40:06;9.83;;;4.53;;
34657;SDS011;20865;43.312;27.152;2022-10-31T06:42:34;9.25;;;5.15;;
34657;SDS011;20865;43.312;27.152;2022-10-31T06:45:02;14.40;;;5.40;;
34657;SDS011;20865;43.312;27.152;2022-10-31T06:47:30;12.20;;;5.53;;
34657;SDS011;20865;43.312;27.152;2022-10-31T06:49:57;11.00;;;4.80;;
34657;SDS011;20865;43.312;27.152;2022-10-31T06:52:25;11.60;;;4.47;;
34657;SDS011;20865;43.312;27.152;2022-10-31T06:54:52;12.85;;;4.80;;
34657;SDS011;20865;43.312;27.152;2022-10-31T06:57:20;8.68;;;4.75;;
34657;SDS011;20865;43.312;27.152;2022-10-31T06:59:48;7.25;;;4.40;;
34657;SDS011;20865;43.312;27.152;2022-10-31T07:02:15;12.05;;;4.50;;
34657;SDS011;20865;43.312;27.152;2022-10-31T07:04:43;10.72;;;4.65;;
34657;SDS011;20865;43.312;27.152;2022-10-31T07:07:10;9.43;;;5.10;;
34657;SDS011;20865;43.312;27.152;2022-10-31T07:09:38;15.90;;;5.60;;
34657;SDS011;20865;43.312;27.152;2022-10-31T07:12:05;9.90;;;4.58;;
34657;SDS011;20865;43.312;27.152;2022-10-31T07:14:33;8.53;;;4.65;;
34657;SDS011;20865;43.312;27.152;2022-10-31T07:17:01;10.25;;;4.42;;
34657;SDS011;20865;43.312;27.152;2022-10-31T07:19:28;10.63;;;4.58;;
34657;SDS011;20865;43.312;27.152;2022-10-31T07:21:56;12.68;;;4.53;;
34657;SDS011;20865;43.312;27.152;2022-10-31T07:24:24;9.88;;;5.25;;
34657;SDS011;20865;43.312;27.152;2022-10-31T07:26:51;7.87;;;4.50;;
34657;SDS011;20865;43.312;27.152;2022-10-31T07:29:19;9.03;;;4.45;;
34657;SDS011;20865;43.312;27.152;2022-10-31T07:31:46;9.78;;;5.00;;
34657;SDS011;20865;43.312;27.152;2022-10-31T07:34:14;11.55;;;5.25;;
34657;SDS011;20865;43.312;27.152;2022-10-31T07:36:41;10.50;;;5.30;;
34657;SDS011;20865;43.312;27.152;2022-10-31T07:39:09;10.68;;;4.75;;
34657;SDS011;20865;43.312;27.152;2022-10-31T07:41:37;7.55;;;4.45;;
34657;SDS011;20865;43.312;27.152;2022-10-31T07:44:04;10.32;;;4.72;;
34657;SDS011;20865;43.312;27.152;2022-10-31T07:46:32;12.13;;;4.97;;
34657;SDS011;20865;43.312;27.152;2022-10-31T07:48:59;9.58;;;4.97;;
34657;SDS011;20865;43.312;27.152;2022-10-31T07:51:27;9.70;;;5.00;;
34657;SDS011;20865;43.312;27.152;2022-10-31T07:53:55;14.83;;;5.08;;
34657;SDS011;20865;43.312;27.152;2022-10-31T07:56:23;10.53;;;4.92;;
34657;SDS011;20865;43.312;27.152;2022-10-31T07:58:50;10.78;;;4.62;;
34657;SDS011;20865;43.312;27.152;2022-10-31T08:01:18;11.15;;;4.53;;
34657;SDS011;20865;43.312;27.152;2022-10-31T08:03:46;10.58;;;4.62;;
34657;SDS011;20865;43.312;27.152;2022-10-31T08:06:13;12.10;;;4.78;;
34657;SDS011;20865;43.312;27.152;2022-10-31T08:08:41;10.03;;;4.55;;
34657;SDS011;20865;43.312;27.152;2022-10-31T08:11:08;11.73;;;4.70;;
34657;SDS011;20865;43.312;27.152;2022-10-31T08:13:36;13.25;;;5.10;;
34657;SDS011;20865;43.312;27.152;2022-10-31T08:16:04;10.58;;;4.67;;
34657;SDS011;20865;43.312;27.152;2022-10-31T08:18:33;6.67;;;3.75;;
34657;SDS011;20865;43.312;27.152;2022-10-31T08:21:02;15.30;;;4.87;;
34657;SDS011;20865;43.312;27.152;2022-10-31T08:23:29;13.18;;;4.45;;
34657;SDS011;20865;43.312;27.152;2022-10-31T08:25:57;10.75;;;5.10;;
34657;SDS011;20865;43.312;27.152;2022-10-31T08:28:25;8.25;;;4.22;;
34657;SDS011;20865;43.312;27.152;2022-10-31T08:30:52;11.57;;;5.45;;
34657;SDS011;20865;43.312;27.152;2022-10-31T08:33:20;10.48;;;4.42;;
34657;SDS011;20865;43.312;27.152;2022-10-31T08:35:47;14.40;;;5.58;;
34657;SDS011;20865;43.312;27.152;2022-10-31T08:38:15;10.38;;;5.28;;
34657;SDS011;20865;43.312;27.152;2022-10-31T08:40:42;13.40;;;4.65;;
34657;SDS011;20865;43.312;27.152;2022-10-31T08:43:13;11.43;;;4.90;;
34657;SDS011;20865;43.312;27.152;2022-10-31T08:45:42;19.80;;;5.33;;
34657;SDS011;20865;43.312;27.152;2022-10-31T08:48:13;17.10;;;5.10;;
34657;SDS011;20865;43.312;27.152;2022-10-31T08:50:42;12.25;;;5.40;;
34657;SDS011;20865;43.312;27.152;2022-10-31T08:53:12;11.40;;;4.97;;
34657;SDS011;20865;43.312;27.152;2022-10-31T08:55:44;9.95;;;5.45;;
34657;SDS011;20865;43.312;27.152;2022-10-31T08:58:14;7.95;;;4.62;;
34657;SDS011;20865;43.312;27.152;2022-10-31T09:00:43;9.48;;;4.60;;
34657;SDS011;20865;43.312;27.152;2022-10-31T09:03:13;7.95;;;3.95;;
34657;SDS011;20865;43.312;27.152;2022-10-31T09:05:42;11.48;;;4.55;;
34657;SDS011;20865;43.312;27.152;2022-10-31T09:08:11;8.90;;;4.40;;
34657;SDS011;20865;43.312;27.152;2022-10-31T09:10:40;10.10;;;4.53;;
34657;SDS011;20865;43.312;27.152;2022-10-31T09:13:15;9.58;;;5.03;;
34657;SDS011;20865;43.312;27.152;2022-10-31T09:15:45;9.33;;;4.30;;
34657;SDS011;20865;43.312;27.152;2022-10-31T09:18:14;9.33;;;4.17;;
34657;SDS011;20865;43.312;27.152;2022-10-31T09:20:44;15.93;;;5.37;;
34657;SDS011;20865;43.312;27.152;2022-10-31T09:23:13;10.55;;;4.50;;
34657;SDS011;20865;43.312;27.152;2022-10-31T09:25:46;11.50;;;4.70;;
34657;SDS011;20865;43.312;27.152;2022-10-31T09:28:16;16.48;;;4.80;;
34657;SDS011;20865;43.312;27.152;2022-10-31T09:30:48;7.72;;;4.75;;
34657;SDS011;20865;43.312;27.152;2022-10-31T09:33:18;10.95;;;4.70;;
34657;SDS011;20865;43.312;27.152;2022-10-31T09:35:46;8.58;;;4.25;;
34657;SDS011;20865;43.312;27.152;2022-10-31T09:38:15;9.38;;;4.20;;
34657;SDS011;20865;43.312;27.152;2022-10-31T09:40:50;10.53;;;4.60;;
34657;SDS011;20865;43.312;27.152;2022-10-31T09:43:29;9.78;;;4.37;;
34657;SDS011;20865;43.312;27.152;2022-10-31T09:46:10;9.10;;;4.10;;
34657;SDS011;20865;43.312;27.152;2022-10-31T09:51:34;8.00;;;4.15;;
34657;SDS011;20865;43.312;27.152;2022-10-31T09:54:14;8.18;;;4.45;;
34657;SDS011;20865;43.312;27.152;2022-10-31T09:56:43;9.73;;;4.90;;
34657;SDS011;20865;43.312;27.152;2022-10-31T09:59:12;9.95;;;3.92;;
34657;SDS011;20865;43.312;27.152;2022-10-31T10:01:49;7.70;;;3.98;;
34657;SDS011;20865;43.312;27.152;2022-10-31T10:06:49;12.45;;;3.80;;
34657;SDS011;20865;43.312;27.152;2022-10-31T10:09:19;6.78;;;3.40;;
34657;SDS011;20865;43.312;27.152;2022-10-31T10:11:55;12.37;;;4.60;;
34657;SDS011;20865;43.312;27.152;2022-10-31T10:15:29;6.42;;;3.27;;
34657;SDS011;20865;43.312;27.152;2022-10-31T10:20:37;9.50;;;4.37;;
34657;SDS011;20865;43.312;27.152;2022-10-31T10:22:39;8.95;;;3.98;;
34657;SDS011;20865;43.312;27.152;2022-10-31T10:25:38;7.15;;;3.42;;
34657;SDS011;20865;43.312;27.152;2022-10-31T10:28:17;6.87;;;3.95;;
34657;SDS011;20865;43.312;27.152;2022-10-31T10:33:30;6.60;;;3.87;;
34657;SDS011;20865;43.312;27.152;2022-10-31T10:36:15;8.78;;;4.20;;
34657;SDS011;20865;43.312;27.152;2022-10-31T10:39:33;5.10;;;3.37;;
34657;SDS011;20865;43.312;27.152;2022-10-31T10:41:43;8.78;;;4.00;;
34657;SDS011;20865;43.312;27.152;2022-10-31T10:44:12;11.57;;;4.08;;
34657;SDS011;20865;43.312;27.152;2022-10-31T10:46:42;8.13;;;4.25;;
34657;SDS011;20865;43.312;27.152;2022-10-31T11:00:23;7.15;;;3.80;;
34657;SDS011;20865;43.312;27.152;2022-10-31T11:02:59;7.95;;;4.30;;
34657;SDS011;20865;43.312;27.152;2022-10-31T11:05:47;6.97;;;3.42;;
34657;SDS011;20865;43.312;27.152;2022-10-31T11:08:31;4.83;;;3.22;;
34657;SDS011;20865;43.312;27.152;2022-10-31T11:11:14;11.50;;;4.10;;
34657;SDS011;20865;43.312;27.152;2022-10-31T11:13:47;7.67;;;3.00;;
34657;SDS011;20865;43.312;27.152;2022-10-31T11:21:45;6.25;;;3.05;;
34657;SDS011;20865;43.312;27.152;2022-10-31T11:24:15;4.37;;;2.98;;
34657;SDS011;20865;43.312;27.152;2022-10-31T11:26:45;6.30;;;3.20;;
34657;SDS011;20865;43.312;27.152;2022-10-31T11:29:19;6.97;;;2.72;;
34657;SDS011;20865;43.312;27.152;2022-10-31T11:31:52;3.85;;;2.55;;
34657;SDS011;20865;43.312;27.152;2022-10-31T11:34:35;6.35;;;2.15;;
34657;SDS011;20865;43.312;27.152;2022-10-31T11:39:43;4.72;;;2.45;;
34657;SDS011;20865;43.312;27.152;2022-10-31T11:42:14;6.70;;;2.35;;
34657;SDS011;20865;43.312;27.152;2022-10-31T11:44:42;3.87;;;2.15;;
34657;SDS011;20865;43.312;27.152;2022-10-31T11:47:12;4.47;;;2.62;;
34657;SDS011;20865;43.312;27.152;2022-10-31T11:49:41;4.05;;;2.45;;
34657;SDS011;20865;43.312;27.152;2022-10-31T11:52:22;7.03;;;3.00;;
34657;SDS011;20865;43.312;27.152;2022-10-31T11:54:55;9.23;;;2.45;;
34657;SDS011;20865;43.312;27.152;2022-10-31T11:57:31;3.10;;;2.20;;
34657;SDS011;20865;43.312;27.152;2022-10-31T12:00:02;3.37;;;2.05;;
34657;SDS011;20865;43.312;27.152;2022-10-31T12:02:31;4.55;;;1.95;;
34657;SDS011;20865;43.312;27.152;2022-10-31T12:07:47;5.80;;;2.35;;
34657;SDS011;20865;43.312;27.152;2022-10-31T12:10:16;5.58;;;2.35;;
34657;SDS011;20865;43.312;27.152;2022-10-31T12:15:27;4.30;;;2.12;;
34657;SDS011;20865;43.312;27.152;2022-10-31T12:31:29;6.12;;;2.08;;
34657;SDS011;20865;43.312;27.152;2022-10-31T12:34:30;3.72;;;2.05;;
34657;SDS011;20865;43.312;27.152;2022-10-31T12:47:55;6.00;;;2.25;;
34657;SDS011;20865;43.312;27.152;2022-10-31T12:59:21;4.08;;;2.55;;
34657;SDS011;20865;43.312;27.152;2022-10-31T13:02:00;9.70;;;2.60;;
34657;SDS011;20865;43.312;27.152;2022-10-31T13:04:44;4.37;;;2.22;;
34657;SDS011;20865;43.312;27.152;2022-10-31T13:07:15;4.65;;;2.55;;
34657;SDS011;20865;43.312;27.152;2022-10-31T13:12:29;4.58;;;2.17;;
34657;SDS011;20865;43.312;27.152;2022-10-31T13:15:03;3.10;;;2.10;;
34657;SDS011;20865;43.312;27.152;2022-10-31T13:17:39;7.12;;;2.60;;
34657;SDS011;20865;43.312;27.152;2022-10-31T13:23:07;7.00;;;2.05;;
34657;SDS011;20865;43.312;27.152;2022-10-31T13:25:49;4.17;;;2.05;;
34657;SDS011;20865;43.312;27.152;2022-10-31T13:28:29;5.47;;;2.77;;
34657;SDS011;20865;43.312;27.152;2022-10-31T13:31:05;3.37;;;2.15;;
34657;SDS011;20865;43.312;27.152;2022-10-31T13:36:30;2.83;;;2.02;;
34657;SDS011;20865;43.312;27.152;2022-10-31T13:41:59;4.12;;;2.30;;
34657;SDS011;20865;43.312;27.152;2022-10-31T13:44:29;5.53;;;1.92;;
34657;SDS011;20865;43.312;27.152;2022-10-31T13:47:00;5.10;;;2.40;;
34657;SDS011;20865;43.312;27.152;2022-10-31T13:52:05;6.78;;;3.62;;
34657;SDS011;20865;43.312;27.152;2022-10-31T13:54:38;5.12;;;2.72;;
34657;SDS011;20865;43.312;27.152;2022-10-31T13:57:19;7.40;;;2.80;;
34657;SDS011;20865;43.312;27.152;2022-10-31T14:00:01;4.17;;;2.45;;
34657;SDS011;20865;43.312;27.152;2022-10-31T14:02:34;9.03;;;2.98;;
34657;SDS011;20865;43.312;27.152;2022-10-31T14:05:06;5.22;;;2.92;;
34657;SDS011;20865;43.312;27.152;2022-10-31T14:07:54;5.03;;;2.22;;
34657;SDS011;20865;43.312;27.152;2022-10-31T14:10:25;3.47;;;2.33;;
34657;SDS011;20865;43.312;27.152;2022-10-31T14:13:15;3.87;;;2.30;;
34657;SDS011;20865;43.312;27.152;2022-10-31T14:15:52;5.75;;;2.35;;
34657;SDS011;20865;43.312;27.152;2022-10-31T14:18:24;7.58;;;2.50;;
34657;SDS011;20865;43.312;27.152;2022-10-31T14:20:53;7.45;;;2.40;;
34657;SDS011;20865;43.312;27.152;2022-10-31T14:28:55;5.35;;;2.55;;
34657;SDS011;20865;43.312;27.152;2022-10-31T14:31:32;5.37;;;2.55;;
34657;SDS011;20865;43.312;27.152;2022-10-31T14:45:15;7.65;;;3.20;;
34657;SDS011;20865;43.312;27.152;2022-10-31T14:47:56;5.25;;;2.45;;
34657;SDS011;20865;43.312;27.152;2022-10-31T14:50:41;5.60;;;2.60;;
34657;SDS011;20865;43.312;27.152;2022-10-31T14:53:14;4.62;;;2.50;;
34657;SDS011;20865;43.312;27.152;2022-10-31T14:55:45;3.58;;;1.90;;
34657;SDS011;20865;43.312;27.152;2022-10-31T14:58:15;5.08;;;2.30;;
34657;SDS011;20865;43.312;27.152;2022-10-31T15:00:44;8.98;;;2.37;;
34657;SDS011;20865;43.312;27.152;2022-10-31T15:03:16;7.42;;;2.22;;
34657;SDS011;20865;43.312;27.152;2022-10-31T15:05:52;3.77;;;1.87;;
34657;SDS011;20865;43.312;27.152;2022-10-31T15:11:19;11.88;;;2.72;;
34657;SDS011;20865;43.312;27.152;2022-10-31T15:13:47;3.62;;;2.30;;
34657;SDS011;20865;43.312;27.152;2022-10-31T15:16:18;9.18;;;2.80;;
34657;SDS011;20865;43.312;27.152;2022-10-31T15:18:48;6.15;;;2.62;;
34657;SDS011;20865;43.312;27.152;2022-10-31T15:21:17;4.40;;;2.67;;
34657;SDS011;20865;43.312;27.152;2022-10-31T15:23:48;5.75;;;2.45;;
34657;SDS011;20865;43.312;27.152;2022-10-31T15:26:20;3.92;;;2.42;;
34657;SDS011;20865;43.312;27.152;2022-10-31T15:29:03;4.05;;;2.25;;
34657;SDS011;20865;43.312;27.152;2022-10-31T15:31:31;3.33;;;2.20;;
34657;SDS011;20865;43.312;27.152;2022-10-31T15:34:00;5.87;;;2.17;;
34657;SDS011;20865;43.312;27.152;2022-10-31T15:36:36;5.78;;;2.17;;
34657;SDS011;20865;43.312;27.152;2022-10-31T15:39:03;2.77;;;1.70;;
34657;SDS011;20865;43.312;27.152;2022-10-31T15:41:33;5.30;;;2.12;;
34657;SDS011;20865;43.312;27.152;2022-10-31T15:44:10;8.00;;;2.70;;
34657;SDS011;20865;43.312;27.152;2022-10-31T15:46:34;3.35;;;2.37;;
34657;SDS011;20865;43.312;27.152;2022-10-31T15:49:02;4.78;;;2.50;;
34657;SDS011;20865;43.312;27.152;2022-10-31T15:51:31;3.45;;;2.10;;
34657;SDS011;20865;43.312;27.152;2022-10-31T15:54:00;4.72;;;2.55;;
34657;SDS011;20865;43.312;27.152;2022-10-31T15:56:29;8.15;;;2.12;;
34657;SDS011;20865;43.312;27.152;2022-10-31T15:58:59;4.75;;;2.87;;
34657;SDS011;20865;43.312;27.152;2022-10-31T16:01:29;4.22;;;2.22;;
34657;SDS011;20865;43.312;27.152;2022-10-31T16:03:59;4.75;;;2.00;;
34657;SDS011;20865;43.312;27.152;2022-10-31T16:06:34;4.58;;;3.02;;
34657;SDS011;20865;43.312;27.152;2022-10-31T16:09:02;3.00;;;1.95;;
34657;SDS011;20865;43.312;27.152;2022-10-31T16:11:35;7.47;;;1.98;;
34657;SDS011;20865;43.312;27.152;2022-10-31T16:14:06;3.62;;;2.10;;
34657;SDS011;20865;43.312;27.152;2022-10-31T16:16:42;4.12;;;2.30;;
34657;SDS011;20865;43.312;27.152;2022-10-31T16:19:15;3.08;;;2.00;;
34657;SDS011;20865;43.312;27.152;2022-10-31T16:21:43;5.97;;;2.50;;
34657;SDS011;20865;43.312;27.152;2022-10-31T16:24:17;5.35;;;2.42;;
34657;SDS011;20865;43.312;27.152;2022-10-31T16:26:52;5.30;;;1.90;;
34657;SDS011;20865;43.312;27.152;2022-10-31T16:29:27;3.72;;;2.05;;
34657;SDS011;20865;43.312;27.152;2022-10-31T16:31:56;5.05;;;2.10;;
34657;SDS011;20865;43.312;27.152;2022-10-31T16:34:24;4.75;;;2.50;;
34657;SDS011;20865;43.312;27.152;2022-10-31T16:36:51;6.33;;;2.45;;
34657;SDS011;20865;43.312;27.152;2022-10-31T16:39:19;8.65;;;2.40;;
34657;SDS011;20865;43.312;27.152;2022-10-31T16:41:48;15.78;;;2.92;;
34657;SDS011;20865;43.312;27.152;2022-10-31T16:44:22;8.45;;;2.70;;
34657;SDS011;20865;43.312;27.152;2022-10-31T16:47:14;12.73;;;2.83;;
34657;SDS011;20865;43.312;27.152;2022-10-31T16:49:38;4.78;;;2.20;;
34657;SDS011;20865;43.312;27.152;2022-10-31T16:52:05;5.30;;;2.58;;
34657;SDS011;20865;43.312;27.152;2022-10-31T16:54:33;7.58;;;3.00;;